Time;durP1;ratioP1;P1;durP2;ratioP2;P2;SDS_P1;SDS_P2;PMS_P1;PMS_P2;Temp;Humidity;BMP_temperature;BMP_pressure;BME280_temperature;BME280_humidity;BME280_pressure;Samples;Min_cycle;Max_cycle;Signal;HPM_P1;HPM_P2
2023/03/21 00:00:34;;;;;;;27.38;15.45;;;;;;;9.84;100.00;100730.75;5099216;28;20054;-78
2023/03/21 00:03:00;;;;;;;31.77;17.25;;;;;;;9.85;100.00;100723.72;5103280;28;20039;-77
2023/03/21 00:05:25;;;;;;;28.70;15.80;;;;;;;9.88;100.00;100721.09;5100569;28;20044;-78
2023/03/21 00:07:51;;;;;;;31.23;17.55;;;;;;;9.89;100.00;100717.56;5103788;28;20471;-78
2023/03/21 00:10:16;;;;;;;32.25;16.42;;;;;;;9.93;100.00;100723.72;5107007;28;20136;-78
2023/03/21 00:12:41;;;;;;;31.08;17.33;;;;;;;9.93;100.00;100716.72;5100721;28;20063;-77
2023/03/21 00:15:10;;;;;;;29.83;16.13;;;;;;;9.93;100.00;100719.34;5081464;28;20040;-78
2023/03/21 00:17:38;;;;;;;26.52;14.88;;;;;;;9.83;100.00;100720.22;5102113;28;20047;-78
2023/03/21 00:20:05;;;;;;;32.70;15.60;;;;;;;9.87;100.00;100716.69;5101084;28;20394;-78
2023/03/21 00:22:34;;;;;;;25.58;15.13;;;;;;;9.89;100.00;100725.50;5101963;28;20055;-78
2023/03/21 00:25:00;;;;;;;24.95;13.80;;;;;;;9.89;100.00;100717.56;5100299;28;20074;-78
2023/03/21 00:27:26;;;;;;;27.17;15.18;;;;;;;9.92;100.00;100720.22;5100916;28;20032;-78
2023/03/21 00:29:53;;;;;;;24.95;13.95;;;;;;;9.91;100.00;100713.19;5080595;28;20051;-78
2023/03/21 00:32:20;;;;;;;26.00;15.50;;;;;;;9.92;100.00;100709.66;5081183;28;20072;-78
2023/03/21 00:34:46;;;;;;;26.23;14.65;;;;;;;9.92;100.00;100709.66;5095478;28;20505;-78
2023/03/21 00:37:16;;;;;;;26.42;14.40;;;;;;;9.88;100.00;100713.19;5084419;28;20077;-78
2023/03/21 00:39:43;;;;;;;34.40;17.45;;;;;;;9.85;100.00;100707.91;5101959;28;20045;-78
2023/03/21 00:42:08;;;;;;;24.00;13.73;;;;;;;9.84;100.00;100703.53;5106197;28;20485;-78
2023/03/21 00:44:35;;;;;;;28.88;15.07;;;;;;;9.86;100.00;100707.03;5103545;28;20509;-78
2023/03/21 00:47:04;;;;;;;22.42;12.82;;;;;;;9.75;100.00;100706.16;5085000;28;20036;-78
2023/03/21 00:49:32;;;;;;;24.65;13.20;;;;;;;9.70;100.00;100710.56;5105440;28;20055;-77
2023/03/21 00:52:01;;;;;;;26.52;16.02;;;;;;;9.76;100.00;100705.28;5086410;28;20551;-77
2023/03/21 00:54:26;;;;;;;30.30;14.52;;;;;;;9.85;100.00;100710.53;5106354;28;20031;-78
2023/03/21 00:56:52;;;;;;;28.40;15.85;;;;;;;9.93;100.00;100711.44;5087177;28;20509;-78
2023/03/21 00:59:18;;;;;;;27.85;14.20;;;;;;;9.97;100.00;100707.03;5103507;28;20397;-77
2023/03/21 01:01:45;;;;;;;27.77;14.98;;;;;;;9.97;100.00;100700.00;5082889;28;20464;-78
2023/03/21 01:04:13;;;;;;;28.75;15.73;;;;;;;9.99;100.00;100700.88;5102225;28;20031;-78
2023/03/21 01:06:41;;;;;;;23.80;14.20;;;;;;;10.00;100.00;100697.34;5066574;28;20550;-78
2023/03/21 01:09:12;;;;;;;26.92;15.45;;;;;;;9.94;100.00;100689.44;5103491;28;20379;-78
2023/03/21 01:11:38;;;;;;;23.27;14.18;;;;;;;9.87;100.00;100695.59;5087202;28;20168;-78
2023/03/21 01:14:03;;;;;;;21.90;14.25;;;;;;;9.83;100.00;100700.00;5125298;22;20139;-72
2023/03/21 01:16:29;;;;;;;29.23;15.50;;;;;;;9.82;100.00;100703.53;5083259;28;20032;-72
2023/03/21 01:18:55;;;;;;;26.73;14.73;;;;;;;9.80;100.00;100705.28;5067923;28;20127;-71
2023/03/21 01:21:20;;;;;;;25.38;14.73;;;;;;;9.79;100.00;100707.91;5104729;28;20150;-72
2023/03/21 01:23:46;;;;;;;25.50;15.05;;;;;;;9.73;100.00;100703.53;5104670;28;20032;-72
2023/03/21 01:26:12;;;;;;;25.23;15.48;;;;;;;9.67;100.00;100703.53;5104389;28;20035;-72
2023/03/21 01:28:40;;;;;;;26.67;15.18;;;;;;;9.57;100.00;100705.28;5086665;28;20069;-72
2023/03/21 01:31:06;;;;;;;22.30;13.57;;;;;;;9.53;100.00;100703.50;5087793;28;20122;-72
2023/03/21 01:33:33;;;;;;;24.67;13.50;;;;;;;9.50;100.00;100698.22;5085534;28;20383;-72
2023/03/21 01:35:59;;;;;;;24.95;14.52;;;;;;;9.47;100.00;100708.78;5087222;28;20028;-72
2023/03/21 01:38:27;;;;;;;26.02;15.60;;;;;;;9.46;100.00;100707.03;5084406;28;20032;-72
2023/03/21 01:40:53;;;;;;;23.75;13.98;;;;;;;9.46;100.00;100707.03;5101050;28;20039;-71
2023/03/21 01:43:34;;;;;;;25.17;14.60;;;;;;;9.52;100.00;100704.41;5081108;28;20035;-71
2023/03/21 01:46:21;;;;;;;23.08;15.05;;;;;;;9.43;100.00;100704.38;5081025;28;20032;-71
2023/03/21 01:49:15;;;;;;;22.52;13.90;;;;;;;9.32;100.00;100706.13;5099627;28;20088;-72
2023/03/21 01:51:47;;;;;;;25.88;14.73;;;;;;;9.32;100.00;100703.47;5083885;28;20582;-72
2023/03/21 01:54:23;;;;;;;24.77;15.68;;;;;;;9.30;100.00;100702.59;5084991;28;20028;-71
2023/03/21 01:56:52;;;;;;;25.13;14.50;;;;;;;9.30;100.00;100702.59;5084345;28;20499;-71
2023/03/21 01:59:30;;;;;;;20.95;13.93;;;;;;;9.26;100.00;100698.22;5085580;28;20550;-72
2023/03/21 02:02:30;;;;;;;21.50;13.70;;;;;;;9.29;100.00;100695.59;5082532;28;20043;-72
2023/03/21 02:05:13;;;;;;;19.85;12.45;;;;;;;9.28;100.00;100691.19;5082579;28;20039;-72
2023/03/21 02:07:40;;;;;;;22.98;14.82;;;;;;;9.26;100.00;100692.94;5085097;28;20402;-72
2023/03/21 02:10:11;;;;;;;21.58;13.25;;;;;;;9.30;100.00;100690.31;5085084;28;20062;-72
2023/03/21 02:12:39;;;;;;;21.95;13.70;;;;;;;9.26;100.00;100679.78;5086606;28;20069;-72
2023/03/21 02:15:07;;;;;;;23.83;14.70;;;;;;;9.21;100.00;100683.28;5082110;28;20509;-72
2023/03/21 02:18:15;;;;;;;22.35;15.18;;;;;;;9.26;100.00;100690.31;5099667;28;20050;-71
2023/03/21 02:20:51;;;;;;;23.15;14.40;;;;;;;9.26;100.00;100691.19;5086172;28;20451;-72
2023/03/21 02:23:27;;;;;;;23.73;15.65;;;;;;;9.23;100.00;100691.19;5083940;28;20406;-71
2023/03/21 02:26:17;;;;;;;20.27;13.70;;;;;;;9.18;100.00;100690.28;5077423;28;20457;-72
2023/03/21 02:29:05;;;;;;;22.58;14.93;;;;;;;9.19;100.00;100685.00;5078224;28;20038;-72
2023/03/21 02:31:55;;;;;;;22.38;14.27;;;;;;;9.13;100.00;100679.75;5086471;28;20078;-71
2023/03/21 02:34:30;;;;;;;22.52;15.23;;;;;;;9.11;100.00;100684.13;5085175;28;20032;-72
2023/03/21 02:37:10;;;;;;;23.63;16.33;;;;;;;9.15;100.00;100682.41;5054884;28;20051;-72
2023/03/21 02:39:48;;;;;;;22.30;15.32;;;;;;;9.21;100.00;100683.28;5084368;28;20065;-72
2023/03/21 02:42:26;;;;;;;22.48;15.05;;;;;;;9.17;100.00;100686.78;5075817;28;20166;-72
2023/03/21 02:45:19;;;;;;;22.88;14.43;;;;;;;9.16;100.00;100695.53;5082588;28;20043;-71
2023/03/21 02:47:58;;;;;;;24.15;15.95;;;;;;;9.09;100.00;100695.53;5083936;28;20036;-72
2023/03/21 02:50:32;;;;;;;24.17;15.85;;;;;;;9.10;100.00;100689.41;5082755;28;20031;-72
2023/03/21 02:53:01;;;;;;;22.17;15.70;;;;;;;8.99;100.00;100684.13;5078305;28;20032;-72
2023/03/21 02:55:31;;;;;;;23.83;15.10;;;;;;;9.01;100.00;100682.34;5083663;28;20031;-72
2023/03/21 02:58:01;;;;;;;26.50;16.42;;;;;;;8.99;100.00;100685.00;5085136;28;20039;-72
2023/03/21 03:00:31;;;;;;;22.45;14.63;;;;;;;9.00;100.00;100683.22;5082993;28;20028;-72
2023/03/21 03:02:57;;;;;;;24.45;15.32;;;;;;;8.99;100.00;100681.47;5085327;28;20023;-72
2023/03/21 03:05:29;;;;;;;23.40;16.10;;;;;;;8.98;100.00;100687.59;5071924;28;20390;-72
2023/03/21 03:08:18;;;;;;;21.77;14.55;;;;;;;8.96;100.00;100682.34;5068704;28;20032;-72
2023/03/21 03:11:27;;;;;;;23.02;15.18;;;;;;;8.91;100.00;100683.22;5079229;28;20033;-72
2023/03/21 03:14:30;;;;;;;23.65;16.33;;;;;;;8.92;100.00;100677.94;5000900;28;20535;-72
2023/03/21 03:17:33;;;;;;;27.30;16.73;;;;;;;8.94;100.00;100677.97;4998799;28;20458;-71
2023/03/21 03:20:19;;;;;;;22.45;16.13;;;;;;;8.92;100.00;100682.31;5097607;28;20111;-72
2023/03/21 03:23:15;;;;;;;22.85;15.65;;;;;;;8.93;100.00;100686.72;5082299;28;20031;-72
2023/03/21 03:25:47;;;;;;;26.38;16.75;;;;;;;8.95;100.00;100687.59;5096517;28;20061;-72
2023/03/21 03:28:20;;;;;;;23.05;15.73;;;;;;;8.92;100.00;100677.94;5084753;28;20493;-72
2023/03/21 03:30:47;;;;;;;26.33;16.48;;;;;;;8.89;100.00;100674.44;5083766;28;20512;-71
2023/03/21 03:33:15;;;;;;;25.00;15.48;;;;;;;8.92;100.00;100680.56;5083175;28;20114;-72
2023/03/21 03:35:43;;;;;;;24.05;16.98;;;;;;;8.94;100.00;100677.97;5084881;28;20034;-72
2023/03/21 03:38:11;;;;;;;24.20;16.23;;;;;;;8.98;100.00;100684.97;5080339;28;20039;-72
2023/03/21 03:40:41;;;;;;;24.83;16.27;;;;;;;9.04;100.00;100689.38;5081572;28;20410;-72
2023/03/21 03:43:35;;;;;;;23.92;16.73;;;;;;;9.11;100.00;100677.97;5102393;28;20076;-71
2023/03/21 03:46:11;;;;;;;22.35;15.98;;;;;;;9.12;100.00;100677.13;5063428;28;20520;-72
2023/03/21 03:48:53;;;;;;;23.55;15.18;;;;;;;9.16;100.00;100674.47;5083091;28;20055;-72
2023/03/21 03:52:00;;;;;;;23.13;16.05;;;;;;;9.17;100.00;100678.88;5096143;28;20440;-71
2023/03/21 03:54:53;;;;;;;23.35;15.55;;;;;;;9.20;100.00;100686.78;4996714;28;20038;-72
2023/03/21 03:57:24;;;;;;;21.70;14.63;;;;;;;9.25;100.00;100685.91;5082123;28;20028;-72
2023/03/21 03:59:49;;;;;;;28.42;15.30;;;;;;;9.31;100.00;100683.31;5082172;28;20028;-72
2023/03/21 04:02:19;;;;;;;22.85;15.25;;;;;;;9.38;100.00;100685.06;5103475;28;20118;-72
2023/03/21 04:04:45;;;;;;;21.92;14.77;;;;;;;9.43;100.00;100684.19;5081633;28;20028;-72
2023/03/21 04:07:11;;;;;;;23.27;15.93;;;;;;;9.45;100.00;100678.91;5085294;28;20028;-72
2023/03/21 04:09:38;;;;;;;21.60;15.23;;;;;;;9.39;100.00;100692.09;5061263;28;20094;-74
2023/03/21 04:12:04;;;;;;;42.70;25.38;;;;;;;9.38;100.00;100685.06;5081652;28;20509;-74
2023/03/21 04:14:29;;;;;;;29.50;18.88;;;;;;;9.31;100.00;100688.56;5084206;28;20024;-75
2023/03/21 04:16:55;;;;;;;29.25;17.92;;;;;;;9.31;100.00;100683.31;5068779;28;20524;-74
2023/03/21 04:19:21;;;;;;;22.50;15.63;;;;;;;9.28;100.00;100683.31;5084299;28;20027;-74
2023/03/21 04:21:46;;;;;;;22.13;15.18;;;;;;;9.29;100.00;100685.91;5082169;28;20074;-74
2023/03/21 04:24:13;;;;;;;26.17;16.63;;;;;;;9.29;100.00;100679.78;5084071;28;20137;-74
2023/03/21 04:26:40;;;;;;;23.38;14.63;;;;;;;9.21;100.00;100678.00;5083118;28;20028;-74
2023/03/21 04:29:22;;;;;;;26.43;16.60;;;;;;;9.17;100.00;100683.28;5084704;28;20027;-74
2023/03/21 04:32:15;;;;;;;23.50;16.05;;;;;;;9.16;100.00;100687.66;5100375;28;20047;-75
2023/03/21 04:34:48;;;;;;;25.92;17.40;;;;;;;9.12;100.00;100680.63;5083799;28;20055;-74
2023/03/21 04:37:17;;;;;;;25.45;16.70;;;;;;;9.13;100.00;100686.78;5083159;28;20056;-75
2023/03/21 04:39:45;;;;;;;28.45;18.13;;;;;;;9.11;100.00;100681.50;5083423;28;20035;-74
2023/03/21 04:42:13;;;;;;;25.65;16.02;;;;;;;9.13;100.00;100679.75;5066239;28;20031;-75
2023/03/21 04:44:39;;;;;;;27.00;16.15;;;;;;;9.16;100.00;100685.00;5082800;28;20027;-74
2023/03/21 04:47:05;;;;;;;24.63;16.88;;;;;;;9.15;100.00;100688.53;5083340;28;20092;-75
2023/03/21 04:49:31;;;;;;;29.50;16.92;;;;;;;9.13;100.00;100685.00;5100251;28;20118;-75
2023/03/21 04:51:56;;;;;;;25.63;17.27;;;;;;;9.12;100.00;100683.28;5101859;28;20039;-75
2023/03/21 04:54:21;;;;;;;27.73;17.13;;;;;;;9.11;100.00;100681.50;5082095;28;20040;-75
2023/03/21 04:56:47;;;;;;;26.27;17.00;;;;;;;9.21;100.00;100677.13;5076293;28;20111;-75
2023/03/21 04:59:14;;;;;;;23.58;16.20;;;;;;;9.23;100.00;100679.78;5101665;28;20123;-74
2023/03/21 05:01:42;;;;;;;25.58;17.33;;;;;;;9.18;100.00;100683.28;5073996;28;20031;-75
2023/03/21 05:04:09;;;;;;;30.10;18.80;;;;;;;9.18;100.00;100687.66;5084563;28;20508;-75
2023/03/21 05:06:35;;;;;;;29.77;16.98;;;;;;;9.18;100.00;100678.00;5076983;28;20035;-75
2023/03/21 05:09:05;;;;;;;28.05;19.02;;;;;;;9.15;100.00;100679.75;5099412;28;20409;-76
2023/03/21 05:11:36;;;;;;;23.88;16.58;;;;;;;9.13;100.00;100678.88;5082137;28;20454;-76
2023/03/21 05:14:06;;;;;;;28.48;19.02;;;;;;;9.15;100.00;100679.75;5091271;28;20028;-75
2023/03/21 05:16:33;;;;;;;31.95;20.55;;;;;;;9.10;100.00;100682.38;5062475;28;20515;-75
2023/03/21 05:19:03;;;;;;;30.52;20.60;;;;;;;9.06;100.00;100677.97;5065612;28;20050;-75
2023/03/21 05:21:40;;;;;;;28.65;17.30;;;;;;;9.10;100.00;100674.47;5080764;28;20028;-75
2023/03/21 05:24:11;;;;;;;28.25;18.30;;;;;;;9.15;100.00;100679.75;5076972;28;20640;-77
2023/03/21 05:26:41;;;;;;;40.30;23.60;;;;;;;9.13;100.00;100689.41;5075517;28;20028;-77
2023/03/21 05:29:12;;;;;;;30.48;19.95;;;;;;;9.02;100.00;100681.47;5077979;28;20039;-77
2023/03/21 05:31:38;;;;;;;31.42;20.52;;;;;;;9.02;100.00;100686.75;5078233;28;20039;-77
2023/03/21 05:34:08;;;;;;;27.73;18.08;;;;;;;9.05;100.00;100678.84;5073982;28;20024;-77
2023/03/21 05:36:34;;;;;;;29.73;18.58;;;;;;;9.06;100.00;100685.00;5092399;28;20055;-77
2023/03/21 05:39:02;;;;;;;28.45;18.48;;;;;;;9.02;100.00;100676.22;5076452;28;20028;-77
2023/03/21 05:41:29;;;;;;;30.52;19.83;;;;;;;8.96;100.00;100677.09;5083841;28;20390;-76
2023/03/21 05:43:57;;;;;;;29.92;18.48;;;;;;;8.97;100.00;100683.22;5076429;28;20028;-77
2023/03/21 05:46:22;;;;;;;28.02;16.83;;;;;;;9.00;100.00;100677.97;5072241;28;20026;-77
2023/03/21 05:48:48;;;;;;;25.95;16.52;;;;;;;9.07;100.00;100673.59;5060701;28;20024;-77
2023/03/21 05:51:17;;;;;;;33.05;19.75;;;;;;;9.03;100.00;100675.34;5079085;28;20028;-76
2023/03/21 05:53:42;;;;;;;29.80;18.77;;;;;;;8.98;100.00;100682.34;5099697;28;20066;-77
2023/03/21 05:56:08;;;;;;;26.17;17.02;;;;;;;8.99;100.00;100681.47;5092647;28;20072;-76
2023/03/21 05:58:46;;;;;;;29.23;19.85;;;;;;;8.93;100.00;100681.44;5076792;28;20116;-77
2023/03/21 06:01:11;;;;;;;23.65;16.25;;;;;;;8.90;100.00;100679.69;5084895;28;20118;-76
2023/03/21 06:03:40;;;;;;;22.58;14.82;;;;;;;8.91;100.00;100688.47;5082982;28;20084;-77
2023/03/21 06:06:13;;;;;;;23.25;14.63;;;;;;;8.88;100.00;100691.06;5101483;28;20491;-77
2023/03/21 06:08:47;;;;;;;20.92;14.20;;;;;;;8.81;100.00;100694.59;5083921;28;20119;-76
2023/03/21 06:11:23;;;;;;;21.88;15.10;;;;;;;8.84;100.00;100687.56;5077522;28;20115;-76
2023/03/21 06:13:50;;;;;;;25.10;15.27;;;;;;;8.85;100.00;100693.69;5083994;28;20029;-76
2023/03/21 06:16:16;;;;;;;24.45;13.98;;;;;;;8.87;100.00;100684.06;5082080;28;20085;-76
2023/03/21 06:18:41;;;;;;;19.05;13.32;;;;;;;8.95;100.00;100696.38;5102578;28;20043;-77
2023/03/21 06:21:32;;;;;;;19.98;12.52;;;;;;;8.93;100.00;100686.72;5073298;28;20032;-76
2023/03/21 06:23:57;;;;;;;19.08;12.75;;;;;;;9.06;100.00;100685.88;5099842;28;20088;-76
2023/03/21 06:26:22;;;;;;;22.30;13.15;;;;;;;9.24;100.00;100689.44;5085364;28;20031;-76
2023/03/21 06:28:49;;;;;;;20.83;12.65;;;;;;;9.40;100.00;100694.69;5084101;28;20028;-77
2023/03/21 06:31:15;;;;;;;16.55;12.02;;;;;;;9.46;100.00;100692.94;5085546;28;20031;-77
2023/03/21 06:33:42;;;;;;;21.83;13.98;;;;;;;9.37;100.00;100699.09;5084977;28;20425;-76
2023/03/21 06:36:10;;;;;;;22.83;14.30;;;;;;;9.48;100.00;100693.84;5062750;28;20070;-77
2023/03/21 06:38:36;;;;;;;19.02;13.10;;;;;;;9.42;100.00;100702.63;5064187;28;20027;-76
2023/03/21 06:41:04;;;;;;;18.10;12.55;;;;;;;9.46;100.00;100698.22;5083876;28;20036;-76
2023/03/21 06:43:33;;;;;;;17.65;11.70;;;;;;;9.46;100.00;100688.59;5067658;28;20921;-77
2023/03/21 06:46:02;;;;;;;21.23;13.18;;;;;;;9.35;100.00;100700.84;5082549;28;20451;-76
2023/03/21 06:48:28;;;;;;;21.15;12.75;;;;;;;9.36;100.00;100703.50;5081751;28;20082;-76
2023/03/21 06:50:55;;;;;;;18.75;13.43;;;;;;;9.45;100.00;100707.88;5079481;28;20036;-76
2023/03/21 06:53:26;;;;;;;20.33;13.05;;;;;;;9.50;100.00;100705.28;5069343;28;20027;-76
2023/03/21 06:56:14;;;;;;;17.73;12.00;;;;;;;9.54;100.00;100700.00;5082570;28;20038;-77
2023/03/21 06:58:40;;;;;;;17.23;12.05;;;;;;;9.63;100.00;100712.31;5092395;28;20024;-76
2023/03/21 07:01:13;;;;;;;18.75;13.00;;;;;;;9.81;100.00;100711.44;5089562;28;20420;-76
2023/03/21 07:03:48;;;;;;;18.45;12.18;;;;;;;9.75;100.00;100703.53;5085974;28;20024;-76
2023/03/21 07:06:15;;;;;;;17.42;11.63;;;;;;;9.87;100.00;100706.16;5102192;28;20073;-77
2023/03/21 07:08:41;;;;;;;15.63;11.23;;;;;;;9.99;100.00;100707.91;5083112;28;20036;-77
2023/03/21 07:11:08;;;;;;;17.45;11.77;;;;;;;10.20;100.00;100712.28;5097766;28;20528;-77
2023/03/21 07:13:33;;;;;;;17.17;12.32;;;;;;;10.38;100.00;100704.38;5098980;28;20027;-75
2023/03/21 07:16:20;;;;;;;18.15;11.20;;;;;;;10.56;100.00;100708.72;5078853;22;20048;-73
2023/03/21 07:18:46;;;;;;;15.30;10.15;;;;;;;10.63;100.00;100705.16;5046297;28;20119;-72
2023/03/21 07:21:12;;;;;;;14.40;9.30;;;;;;;10.75;100.00;100701.59;5062535;28;20145;-72
2023/03/21 07:23:39;;;;;;;13.95;8.55;;;;;;;10.75;100.00;100705.09;5070531;28;20051;-72
2023/03/21 07:26:05;;;;;;;14.75;9.10;;;;;;;10.61;100.00;100713.94;5053958;28;20498;-72
2023/03/21 07:28:32;;;;;;;13.85;8.73;;;;;;;10.40;100.00;100709.63;5052963;28;20025;-72
2023/03/21 07:31:00;;;;;;;14.45;8.63;;;;;;;10.33;100.00;100721.97;5076693;28;20063;-72
2023/03/21 07:33:26;;;;;;;14.05;8.18;;;;;;;10.17;100.00;100709.66;5056696;28;20015;-72
2023/03/21 07:35:56;;;;;;;16.20;8.35;;;;;;;10.22;100.00;100714.03;5058472;28;20127;-72
2023/03/21 07:38:22;;;;;;;13.13;7.82;;;;;;;10.37;100.00;100713.13;5074637;28;20043;-72
2023/03/21 07:40:49;;;;;;;16.25;9.10;;;;;;;10.44;100.00;100704.34;5049388;28;20040;-72
2023/03/21 07:43:15;;;;;;;11.23;7.18;;;;;;;10.53;100.00;100708.69;5053667;28;20036;-72
2023/03/21 07:45:44;;;;;;;12.30;8.07;;;;;;;10.56;100.00;100707.81;5062146;28;20035;-72
2023/03/21 07:48:16;;;;;;;14.63;9.18;;;;;;;10.58;100.00;100709.56;5035485;28;20036;-72
2023/03/21 07:50:42;;;;;;;12.73;7.10;;;;;;;10.71;100.00;100708.63;5069684;28;20025;-72
2023/03/21 07:53:08;;;;;;;11.98;7.53;;;;;;;10.74;100.00;100707.75;5040762;28;20063;-72
2023/03/21 07:55:33;;;;;;;16.58;8.10;;;;;;;10.78;100.00;100714.78;5066181;28;20032;-72
2023/03/21 07:58:03;;;;;;;16.88;10.15;;;;;;;10.82;100.00;100708.63;5070238;28;20059;-72
2023/03/21 08:00:28;;;;;;;14.35;7.78;;;;;;;10.88;100.00;100703.28;5069952;28;20044;-72
2023/03/21 08:02:55;;;;;;;16.90;10.52;;;;;;;10.96;100.00;100698.84;5070177;28;20055;-74
2023/03/21 08:05:27;;;;;;;13.75;8.32;;;;;;;11.08;100.00;100700.56;5070296;28;20044;-74
2023/03/21 08:07:52;;;;;;;12.15;7.05;;;;;;;11.08;100.00;100704.94;5070816;28;20517;-74
2023/03/21 08:10:18;;;;;;;13.75;7.60;;;;;;;11.00;100.00;100709.38;5070850;28;20140;-74
2023/03/21 08:12:45;;;;;;;12.48;7.15;;;;;;;11.15;100.00;100706.66;5071243;28;20486;-74
2023/03/21 08:15:11;;;;;;;13.20;7.53;;;;;;;11.37;100.00;100705.66;5070791;28;20395;-74
2023/03/21 08:17:38;;;;;;;14.15;7.53;;;;;;;11.58;100.00;100709.03;5071106;28;20040;-74
2023/03/21 08:20:10;;;;;;;9.68;6.47;;;;;;;11.81;100.00;100701.78;5070741;28;20060;-74
2023/03/21 08:22:36;;;;;;;14.25;6.80;;;;;;;11.87;100.00;100706.19;5067019;28;20041;-74
2023/03/21 08:25:04;;;;;;;12.13;6.80;;;;;;;12.09;100.00;100706.88;5052913;28;20051;-74
2023/03/21 08:27:30;;;;;;;10.63;6.40;;;;;;;12.18;100.00;100703.25;5070787;28;20522;-74
2023/03/21 08:29:56;;;;;;;11.32;6.20;;;;;;;12.30;99.30;100704.91;5070204;28;20071;-74
2023/03/21 08:32:28;;;;;;;12.18;7.57;;;;;;;12.27;99.57;100704.03;5071477;28;20032;-74
2023/03/21 08:34:54;;;;;;;11.27;6.95;;;;;;;12.14;99.09;100710.34;5070964;28;20098;-74
2023/03/21 08:37:20;;;;;;;13.52;6.43;;;;;;;12.31;98.52;100710.16;5070812;28;20072;-74
2023/03/21 08:39:45;;;;;;;12.45;6.85;;;;;;;12.45;97.18;100716.22;5070524;28;20106;-74
2023/03/21 08:42:10;;;;;;;16.05;6.85;;;;;;;12.35;96.50;100713.69;5071016;28;20020;-74
2023/03/21 08:44:37;;;;;;;12.00;7.28;;;;;;;12.19;98.27;100712.97;5070587;28;20174;-74
2023/03/21 08:47:03;;;;;;;12.95;6.80;;;;;;;12.14;97.40;100714.78;5069461;28;20517;-74
2023/03/21 08:49:28;;;;;;;14.05;6.88;;;;;;;11.93;97.29;100705.28;5053180;28;20040;-74
2023/03/21 08:51:57;;;;;;;17.02;7.03;;;;;;;11.92;97.90;100700.84;5068468;28;20829;-74
2023/03/21 08:54:22;;;;;;;13.18;6.90;;;;;;;11.94;98.65;100701.72;5070111;28;20124;-74
2023/03/21 08:56:48;;;;;;;13.52;6.60;;;;;;;11.96;97.76;100695.53;5069775;28;20119;-74
2023/03/21 08:59:14;;;;;;;12.05;7.43;;;;;;;12.06;98.74;100694.56;5070383;28;20128;-75
2023/03/21 09:01:40;;;;;;;12.60;7.57;;;;;;;12.16;98.06;100695.34;5071119;28;20579;-74
2023/03/21 09:04:09;;;;;;;14.52;6.43;;;;;;;12.51;97.67;100688.78;5073340;28;20529;-74
2023/03/21 09:06:36;;;;;;;16.90;9.18;;;;;;;12.68;95.19;100697.41;5070755;28;20444;-74
2023/03/21 09:09:01;;;;;;;17.08;8.80;;;;;;;12.79;94.62;100693.75;5073990;28;20440;-74
2023/03/21 09:11:27;;;;;;;14.95;8.63;;;;;;;12.85;93.42;100694.53;5073944;28;20037;-74
2023/03/21 09:13:52;;;;;;;14.05;8.05;;;;;;;12.82;93.42;100691.94;5074245;28;20036;-74
2023/03/21 09:16:17;;;;;;;14.05;7.93;;;;;;;12.70;93.82;100692.94;5058274;28;20037;-72
2023/03/21 09:18:48;;;;;;;12.13;8.27;;;;;;;12.62;93.81;100694.81;5076411;28;20403;-74
2023/03/21 09:21:16;;;;;;;13.77;8.43;;;;;;;12.51;93.61;100704.66;5066882;28;20518;-75
2023/03/21 09:23:47;;;;;;;12.00;8.00;;;;;;;12.55;93.96;100695.81;5058351;28;20032;-75
2023/03/21 09:26:15;;;;;;;15.47;9.20;;;;;;;12.43;95.05;100696.81;5075943;28;20074;-74
2023/03/21 09:28:41;;;;;;;14.07;8.18;;;;;;;12.43;96.72;100695.94;5057770;28;20025;-74
2023/03/21 09:31:10;;;;;;;17.40;10.05;;;;;;;12.49;95.58;100691.44;5075554;28;20040;-74
2023/03/21 09:33:39;;;;;;;16.67;9.35;;;;;;;12.63;95.25;100687.78;5055560;28;20114;-74
2023/03/21 09:36:12;;;;;;;18.90;9.10;;;;;;;12.69;94.48;100688.56;5057375;28;20394;-74
2023/03/21 09:38:44;;;;;;;12.82;8.93;;;;;;;12.90;92.67;100686.53;5057389;28;20032;-74
2023/03/21 09:41:18;;;;;;;13.15;8.85;;;;;;;13.09;93.18;100677.44;5056598;28;20048;-74
2023/03/21 09:44:16;;;;;;;15.20;9.52;;;;;;;13.39;90.64;100672.63;5052919;28;20047;-74
2023/03/21 09:46:56;;;;;;;15.48;9.88;;;;;;;13.34;89.19;100679.78;5029920;28;20499;-74
2023/03/21 09:49:29;;;;;;;15.05;9.90;;;;;;;13.47;90.49;100668.09;5066122;28;20040;-74
2023/03/21 09:51:58;;;;;;;17.10;9.88;;;;;;;13.61;88.40;100669.63;5069191;28;20041;-74
2023/03/21 09:54:38;;;;;;;14.52;8.32;;;;;;;13.84;86.73;100667.47;5073231;28;20174;-74
2023/03/21 09:57:44;;;;;;;15.13;8.00;;;;;;;13.66;85.14;100673.09;5071753;28;20115;-74
2023/03/21 10:00:19;;;;;;;11.40;7.40;;;;;;;13.59;87.26;100674.94;4986949;28;20554;-74
2023/03/21 10:02:50;;;;;;;12.80;8.13;;;;;;;13.65;87.42;100676.63;5003523;28;20072;-74
2023/03/21 10:05:23;;;;;;;16.58;8.20;;;;;;;13.79;86.57;100677.28;5073639;28;20032;-74
2023/03/21 10:07:54;;;;;;;15.88;7.75;;;;;;;13.87;86.15;100667.41;5055980;28;20071;-74
2023/03/21 10:10:28;;;;;;;10.68;5.63;;;;;;;13.84;84.38;100670.13;5073602;28;20106;-74
2023/03/21 10:13:00;;;;;;;12.30;6.50;;;;;;;13.76;86.25;100669.38;5069981;28;20115;-74
2023/03/21 10:15:49;;;;;;;10.02;5.63;;;;;;;13.80;84.66;100671.06;5088510;22;20045;-74
2023/03/21 10:18:22;;;;;;;10.68;6.75;;;;;;;13.79;86.15;100669.31;5063681;28;20087;-74
2023/03/21 10:20:49;;;;;;;14.27;6.95;;;;;;;13.89;86.63;100670.06;5065282;28;20063;-74
2023/03/21 10:23:18;;;;;;;9.00;5.97;;;;;;;13.96;85.36;100669.91;5061403;28;20098;-75
2023/03/21 10:25:51;;;;;;;10.20;5.80;;;;;;;13.78;84.06;100656.94;5065372;28;20086;-74
2023/03/21 10:28:21;;;;;;;11.38;5.40;;;;;;;13.74;84.29;100663.22;5065633;28;20036;-74
2023/03/21 10:30:55;;;;;;;11.68;5.78;;;;;;;13.77;86.62;100658.72;5064356;28;20067;-74
2023/03/21 10:33:30;;;;;;;13.88;6.85;;;;;;;13.99;85.86;100655.69;5066420;28;20111;-74
2023/03/21 10:35:59;;;;;;;14.48;6.57;;;;;;;13.98;82.71;100656.59;5062618;28;20510;-74
2023/03/21 10:38:26;;;;;;;13.82;6.68;;;;;;;13.89;84.68;100662.09;5068836;28;20050;-74
2023/03/21 10:41:00;;;;;;;13.32;5.32;;;;;;;14.05;85.95;100654.72;5069246;28;20033;-74
2023/03/21 10:43:26;;;;;;;11.30;5.43;;;;;;;14.29;83.28;100654.25;5049275;28;20529;-74
2023/03/21 10:45:56;;;;;;;11.43;6.75;;;;;;;14.13;83.75;100652.81;5050223;28;20040;-74
2023/03/21 10:48:23;;;;;;;17.08;9.30;;;;;;;14.15;83.32;100651.00;5068610;28;20047;-75
2023/03/21 10:50:52;;;;;;;11.27;7.70;;;;;;;14.22;84.21;100645.50;5064772;28;20032;-74
2023/03/21 10:53:28;;;;;;;11.85;6.07;;;;;;;14.54;83.23;100637.84;5060974;28;20043;-74
2023/03/21 10:55:58;;;;;;;9.32;5.40;;;;;;;14.69;79.62;100645.50;5061888;28;20086;-74
2023/03/21 10:58:32;;;;;;;10.48;5.13;;;;;;;14.94;80.16;100640.53;5064302;28;20483;-74
2023/03/21 11:01:03;;;;;;;13.40;7.53;;;;;;;14.94;79.95;100632.56;5061978;28;20037;-74
2023/03/21 11:03:42;;;;;;;10.20;6.57;;;;;;;15.21;79.18;100636.34;5044536;28;20112;-74
2023/03/21 11:06:22;;;;;;;11.25;4.90;;;;;;;15.20;78.28;100626.66;5067637;28;20641;-74
2023/03/21 11:08:52;;;;;;;10.43;6.07;;;;;;;15.36;77.07;100626.28;5064945;28;20040;-74
2023/03/21 11:11:39;;;;;;;9.90;5.22;;;;;;;15.50;78.20;100624.16;5065748;28;20548;-74
2023/03/21 11:14:18;;;;;;;10.18;5.40;;;;;;;15.52;76.11;100625.84;5060226;28;20080;-74
2023/03/21 11:16:43;;;;;;;7.50;4.32;;;;;;;15.77;76.85;100626.16;5062478;28;20039;-74
2023/03/21 11:19:17;;;;;;;10.57;4.88;;;;;;;15.99;75.18;100620.25;5068800;28;20036;-74
2023/03/21 11:21:43;;;;;;;10.10;4.80;;;;;;;16.07;75.05;100617.38;5066639;28;20048;-74
2023/03/21 11:24:14;;;;;;;8.68;5.70;;;;;;;16.12;75.75;100611.00;5066373;28;20509;-75
2023/03/21 11:26:43;;;;;;;8.15;4.82;;;;;;;16.36;72.78;100613.91;5066481;28;20033;-74
2023/03/21 11:29:27;;;;;;;9.40;5.35;;;;;;;16.10;74.00;100606.63;5064463;28;20036;-74